sensor_id;sensor_type;location;lat;lon;timestamp;P1;durP1;ratioP1;P2;durP2;ratioP2
42912;SDS011;50720;54.324;18.558;2022-11-13T00:01:29;14.73;;;6.47;;
42912;SDS011;50720;54.324;18.558;2022-11-13T00:03:59;13.88;;;7.90;;
42912;SDS011;50720;54.324;18.558;2022-11-13T00:06:28;12.32;;;6.25;;
42912;SDS011;50720;54.324;18.558;2022-11-13T00:08:57;12.18;;;6.35;;
42912;SDS011;50720;54.324;18.558;2022-11-13T00:11:29;17.80;;;6.83;;
42912;SDS011;50720;54.324;18.558;2022-11-13T00:13:58;13.40;;;7.13;;
42912;SDS011;50720;54.324;18.558;2022-11-13T00:16:28;13.23;;;6.15;;
42912;SDS011;50720;54.324;18.558;2022-11-13T00:18:57;12.90;;;5.93;;
42912;SDS011;50720;54.324;18.558;2022-11-13T00:21:26;12.55;;;5.80;;
42912;SDS011;50720;54.324;18.558;2022-11-13T00:23:56;8.65;;;5.45;;
42912;SDS011;50720;54.324;18.558;2022-11-13T00:26:26;15.73;;;6.45;;
42912;SDS011;50720;54.324;18.558;2022-11-13T00:28:59;18.48;;;6.53;;
42912;SDS011;50720;54.324;18.558;2022-11-13T00:31:30;17.02;;;5.93;;
42912;SDS011;50720;54.324;18.558;2022-11-13T00:34:00;14.23;;;5.75;;
42912;SDS011;50720;54.324;18.558;2022-11-13T00:36:49;13.15;;;6.30;;
42912;SDS011;50720;54.324;18.558;2022-11-13T00:39:19;16.10;;;6.03;;
42912;SDS011;50720;54.324;18.558;2022-11-13T00:41:50;12.93;;;6.07;;
42912;SDS011;50720;54.324;18.558;2022-11-13T00:44:20;14.95;;;6.25;;
42912;SDS011;50720;54.324;18.558;2022-11-13T00:46:50;16.77;;;5.80;;
42912;SDS011;50720;54.324;18.558;2022-11-13T00:49:19;13.57;;;5.60;;
42912;SDS011;50720;54.324;18.558;2022-11-13T00:51:49;12.63;;;5.28;;
42912;SDS011;50720;54.324;18.558;2022-11-13T00:54:19;13.80;;;6.18;;
42912;SDS011;50720;54.324;18.558;2022-11-13T00:56:49;13.55;;;5.43;;
42912;SDS011;50720;54.324;18.558;2022-11-13T00:59:20;12.23;;;5.60;;
42912;SDS011;50720;54.324;18.558;2022-11-13T01:01:49;11.43;;;5.18;;
42912;SDS011;50720;54.324;18.558;2022-11-13T01:04:19;12.52;;;4.82;;
42912;SDS011;50720;54.324;18.558;2022-11-13T01:06:50;12.55;;;6.25;;
42912;SDS011;50720;54.324;18.558;2022-11-13T01:09:19;12.50;;;5.38;;
42912;SDS011;50720;54.324;18.558;2022-11-13T01:11:50;8.10;;;4.90;;
42912;SDS011;50720;54.324;18.558;2022-11-13T01:14:20;14.88;;;5.63;;
42912;SDS011;50720;54.324;18.558;2022-11-13T01:16:49;16.45;;;6.75;;
42912;SDS011;50720;54.324;18.558;2022-11-13T01:19:20;15.07;;;6.22;;
42912;SDS011;50720;54.324;18.558;2022-11-13T01:21:49;16.00;;;5.60;;
42912;SDS011;50720;54.324;18.558;2022-11-13T01:24:19;12.77;;;5.63;;
42912;SDS011;50720;54.324;18.558;2022-11-13T01:26:48;13.43;;;5.18;;
42912;SDS011;50720;54.324;18.558;2022-11-13T01:29:19;14.77;;;5.65;;
42912;SDS011;50720;54.324;18.558;2022-11-13T01:31:50;13.85;;;6.00;;
42912;SDS011;50720;54.324;18.558;2022-11-13T01:34:19;20.85;;;6.28;;
42912;SDS011;50720;54.324;18.558;2022-11-13T01:36:48;12.85;;;5.63;;
42912;SDS011;50720;54.324;18.558;2022-11-13T01:39:18;16.55;;;6.03;;
42912;SDS011;50720;54.324;18.558;2022-11-13T01:41:48;17.35;;;5.53;;
42912;SDS011;50720;54.324;18.558;2022-11-13T01:44:19;9.93;;;5.70;;
42912;SDS011;50720;54.324;18.558;2022-11-13T01:46:49;10.00;;;6.07;;
42912;SDS011;50720;54.324;18.558;2022-11-13T01:49:25;12.70;;;5.43;;
42912;SDS011;50720;54.324;18.558;2022-11-13T01:51:58;13.77;;;4.78;;
42912;SDS011;50720;54.324;18.558;2022-11-13T01:54:31;15.65;;;5.60;;
42912;SDS011;50720;54.324;18.558;2022-11-13T01:57:03;10.93;;;5.13;;
42912;SDS011;50720;54.324;18.558;2022-11-13T01:59:36;11.02;;;5.13;;
42912;SDS011;50720;54.324;18.558;2022-11-13T02:02:08;9.90;;;4.65;;
42912;SDS011;50720;54.324;18.558;2022-11-13T02:04:37;12.00;;;5.20;;
42912;SDS011;50720;54.324;18.558;2022-11-13T02:07:07;10.55;;;5.57;;
42912;SDS011;50720;54.324;18.558;2022-11-13T02:09:39;13.82;;;5.43;;
42912;SDS011;50720;54.324;18.558;2022-11-13T02:12:11;10.75;;;5.43;;
42912;SDS011;50720;54.324;18.558;2022-11-13T02:14:45;10.05;;;5.60;;
42912;SDS011;50720;54.324;18.558;2022-11-13T02:17:19;9.15;;;5.30;;
42912;SDS011;50720;54.324;18.558;2022-11-13T02:19:53;13.43;;;5.20;;
42912;SDS011;50720;54.324;18.558;2022-11-13T02:22:28;11.90;;;4.80;;
42912;SDS011;50720;54.324;18.558;2022-11-13T02:25:05;12.23;;;5.15;;
42912;SDS011;50720;54.324;18.558;2022-11-13T02:27:37;8.70;;;5.13;;
42912;SDS011;50720;54.324;18.558;2022-11-13T02:30:11;13.50;;;5.28;;
42912;SDS011;50720;54.324;18.558;2022-11-13T02:32:52;11.10;;;5.30;;
42912;SDS011;50720;54.324;18.558;2022-11-13T02:35:23;12.63;;;5.15;;
42912;SDS011;50720;54.324;18.558;2022-11-13T02:37:57;13.50;;;5.70;;
42912;SDS011;50720;54.324;18.558;2022-11-13T02:40:31;11.02;;;5.40;;
42912;SDS011;50720;54.324;18.558;2022-11-13T02:43:01;9.85;;;4.78;;
42912;SDS011;50720;54.324;18.558;2022-11-13T02:45:30;14.70;;;6.90;;
42912;SDS011;50720;54.324;18.558;2022-11-13T02:48:00;13.52;;;4.88;;
42912;SDS011;50720;54.324;18.558;2022-11-13T02:50:29;10.93;;;6.32;;
42912;SDS011;50720;54.324;18.558;2022-11-13T02:53:00;15.15;;;6.22;;
42912;SDS011;50720;54.324;18.558;2022-11-13T02:55:31;10.47;;;5.30;;
42912;SDS011;50720;54.324;18.558;2022-11-13T02:58:02;11.98;;;5.38;;
42912;SDS011;50720;54.324;18.558;2022-11-13T03:00:31;13.15;;;5.55;;
42912;SDS011;50720;54.324;18.558;2022-11-13T03:03:01;9.68;;;4.88;;
42912;SDS011;50720;54.324;18.558;2022-11-13T03:05:31;14.85;;;5.75;;
42912;SDS011;50720;54.324;18.558;2022-11-13T03:08:01;12.88;;;5.20;;
42912;SDS011;50720;54.324;18.558;2022-11-13T03:10:32;12.55;;;5.38;;
42912;SDS011;50720;54.324;18.558;2022-11-13T03:13:02;11.35;;;5.15;;
42912;SDS011;50720;54.324;18.558;2022-11-13T03:15:32;9.65;;;4.82;;
42912;SDS011;50720;54.324;18.558;2022-11-13T03:20:34;8.30;;;4.93;;
42912;SDS011;50720;54.324;18.558;2022-11-13T03:23:04;15.10;;;5.35;;
42912;SDS011;50720;54.324;18.558;2022-11-13T03:25:36;9.80;;;4.50;;
42912;SDS011;50720;54.324;18.558;2022-11-13T03:28:05;8.75;;;5.18;;
42912;SDS011;50720;54.324;18.558;2022-11-13T03:30:35;13.73;;;5.97;;
42912;SDS011;50720;54.324;18.558;2022-11-13T03:35:35;20.02;;;5.18;;
42912;SDS011;50720;54.324;18.558;2022-11-13T03:38:12;12.77;;;5.13;;
42912;SDS011;50720;54.324;18.558;2022-11-13T03:40:44;13.77;;;6.00;;
42912;SDS011;50720;54.324;18.558;2022-11-13T03:43:13;14.10;;;5.85;;
42912;SDS011;50720;54.324;18.558;2022-11-13T03:45:44;11.70;;;6.28;;
42912;SDS011;50720;54.324;18.558;2022-11-13T03:48:15;19.10;;;8.18;;
42912;SDS011;50720;54.324;18.558;2022-11-13T03:50:46;13.95;;;5.85;;
42912;SDS011;50720;54.324;18.558;2022-11-13T03:53:16;11.43;;;5.45;;
42912;SDS011;50720;54.324;18.558;2022-11-13T03:55:48;15.65;;;6.13;;
42912;SDS011;50720;54.324;18.558;2022-11-13T03:58:18;13.13;;;5.50;;
42912;SDS011;50720;54.324;18.558;2022-11-13T04:00:49;9.27;;;4.82;;
42912;SDS011;50720;54.324;18.558;2022-11-13T04:03:18;11.83;;;6.03;;
42912;SDS011;50720;54.324;18.558;2022-11-13T04:05:48;16.45;;;5.57;;
42912;SDS011;50720;54.324;18.558;2022-11-13T04:08:18;9.88;;;5.63;;
42912;SDS011;50720;54.324;18.558;2022-11-13T04:10:49;11.10;;;4.88;;
42912;SDS011;50720;54.324;18.558;2022-11-13T04:13:19;13.00;;;5.53;;
42912;SDS011;50720;54.324;18.558;2022-11-13T04:15:49;9.10;;;5.50;;
42912;SDS011;50720;54.324;18.558;2022-11-13T04:18:19;11.02;;;5.03;;
42912;SDS011;50720;54.324;18.558;2022-11-13T04:20:49;10.82;;;6.03;;
42912;SDS011;50720;54.324;18.558;2022-11-13T04:23:18;11.77;;;4.97;;
42912;SDS011;50720;54.324;18.558;2022-11-13T04:25:50;11.43;;;5.60;;
42912;SDS011;50720;54.324;18.558;2022-11-13T04:28:20;12.68;;;5.15;;
42912;SDS011;50720;54.324;18.558;2022-11-13T04:33:20;10.07;;;5.47;;
42912;SDS011;50720;54.324;18.558;2022-11-13T04:35:50;10.15;;;5.28;;
42912;SDS011;50720;54.324;18.558;2022-11-13T04:38:20;13.77;;;5.47;;
42912;SDS011;50720;54.324;18.558;2022-11-13T04:40:51;13.68;;;4.93;;
42912;SDS011;50720;54.324;18.558;2022-11-13T04:43:41;10.70;;;5.40;;
42912;SDS011;50720;54.324;18.558;2022-11-13T04:46:09;7.80;;;5.28;;
42912;SDS011;50720;54.324;18.558;2022-11-13T04:48:40;12.68;;;5.80;;
42912;SDS011;50720;54.324;18.558;2022-11-13T04:51:09;14.70;;;6.85;;
42912;SDS011;50720;54.324;18.558;2022-11-13T04:56:11;10.70;;;5.93;;
42912;SDS011;50720;54.324;18.558;2022-11-13T04:58:41;13.95;;;6.05;;
42912;SDS011;50720;54.324;18.558;2022-11-13T05:01:10;20.40;;;6.00;;
42912;SDS011;50720;54.324;18.558;2022-11-13T05:03:40;7.38;;;4.32;;
42912;SDS011;50720;54.324;18.558;2022-11-13T05:06:10;12.05;;;5.28;;
42912;SDS011;50720;54.324;18.558;2022-11-13T05:08:40;16.05;;;5.35;;
42912;SDS011;50720;54.324;18.558;2022-11-13T05:11:11;9.00;;;4.78;;
42912;SDS011;50720;54.324;18.558;2022-11-13T05:13:41;11.18;;;5.57;;
42912;SDS011;50720;54.324;18.558;2022-11-13T05:16:11;11.48;;;5.07;;
42912;SDS011;50720;54.324;18.558;2022-11-13T05:18:42;11.57;;;5.15;;
42912;SDS011;50720;54.324;18.558;2022-11-13T05:21:12;14.73;;;5.03;;
42912;SDS011;50720;54.324;18.558;2022-11-13T05:23:41;11.35;;;5.00;;
42912;SDS011;50720;54.324;18.558;2022-11-13T05:26:13;16.35;;;6.28;;
42912;SDS011;50720;54.324;18.558;2022-11-13T05:28:42;9.77;;;5.20;;
42912;SDS011;50720;54.324;18.558;2022-11-13T05:31:13;11.80;;;5.50;;
42912;SDS011;50720;54.324;18.558;2022-11-13T05:33:43;11.00;;;5.40;;
42912;SDS011;50720;54.324;18.558;2022-11-13T05:36:14;9.90;;;4.90;;
42912;SDS011;50720;54.324;18.558;2022-11-13T05:38:45;10.75;;;5.07;;
42912;SDS011;50720;54.324;18.558;2022-11-13T05:41:17;10.30;;;5.90;;
42912;SDS011;50720;54.324;18.558;2022-11-13T05:43:48;15.35;;;5.97;;
42912;SDS011;50720;54.324;18.558;2022-11-13T05:46:26;10.18;;;5.35;;
42912;SDS011;50720;54.324;18.558;2022-11-13T05:48:57;10.88;;;5.82;;
42912;SDS011;50720;54.324;18.558;2022-11-13T05:51:30;16.85;;;5.55;;
42912;SDS011;50720;54.324;18.558;2022-11-13T05:54:00;11.15;;;5.57;;
42912;SDS011;50720;54.324;18.558;2022-11-13T05:56:32;11.83;;;5.47;;
42912;SDS011;50720;54.324;18.558;2022-11-13T05:59:03;13.10;;;6.07;;
42912;SDS011;50720;54.324;18.558;2022-11-13T06:01:34;10.95;;;5.00;;
42912;SDS011;50720;54.324;18.558;2022-11-13T06:04:06;10.98;;;5.72;;
42912;SDS011;50720;54.324;18.558;2022-11-13T06:06:35;11.88;;;6.03;;
42912;SDS011;50720;54.324;18.558;2022-11-13T06:12:25;11.93;;;5.18;;
42912;SDS011;50720;54.324;18.558;2022-11-13T06:14:56;10.82;;;5.45;;
42912;SDS011;50720;54.324;18.558;2022-11-13T06:17:26;11.02;;;5.25;;
42912;SDS011;50720;54.324;18.558;2022-11-13T06:19:55;14.18;;;5.97;;
42912;SDS011;50720;54.324;18.558;2022-11-13T06:22:25;10.13;;;5.18;;
42912;SDS011;50720;54.324;18.558;2022-11-13T06:24:56;14.55;;;6.03;;
42912;SDS011;50720;54.324;18.558;2022-11-13T06:27:27;13.30;;;6.35;;
42912;SDS011;50720;54.324;18.558;2022-11-13T06:29:57;13.48;;;6.70;;
42912;SDS011;50720;54.324;18.558;2022-11-13T06:32:27;13.27;;;6.10;;
42912;SDS011;50720;54.324;18.558;2022-11-13T06:34:56;12.55;;;5.30;;
42912;SDS011;50720;54.324;18.558;2022-11-13T06:37:26;10.52;;;5.18;;
42912;SDS011;50720;54.324;18.558;2022-11-13T06:40:00;11.07;;;4.80;;
42912;SDS011;50720;54.324;18.558;2022-11-13T06:42:31;9.73;;;5.43;;
42912;SDS011;50720;54.324;18.558;2022-11-13T06:47:31;16.65;;;5.65;;
42912;SDS011;50720;54.324;18.558;2022-11-13T06:50:00;14.30;;;5.78;;
42912;SDS011;50720;54.324;18.558;2022-11-13T06:52:29;9.40;;;5.10;;
42912;SDS011;50720;54.324;18.558;2022-11-13T06:54:59;10.85;;;4.90;;
42912;SDS011;50720;54.324;18.558;2022-11-13T06:57:29;9.40;;;5.03;;
42912;SDS011;50720;54.324;18.558;2022-11-13T07:00:00;12.23;;;5.27;;
42912;SDS011;50720;54.324;18.558;2022-11-13T07:04:59;19.38;;;5.20;;
42912;SDS011;50720;54.324;18.558;2022-11-13T07:07:28;10.90;;;6.93;;
42912;SDS011;50720;54.324;18.558;2022-11-13T07:09:58;16.42;;;4.93;;
42912;SDS011;50720;54.324;18.558;2022-11-13T07:12:27;6.88;;;4.10;;
42912;SDS011;50720;54.324;18.558;2022-11-13T07:14:57;14.38;;;5.50;;
42912;SDS011;50720;54.324;18.558;2022-11-13T07:17:28;11.85;;;3.38;;
42912;SDS011;50720;54.324;18.558;2022-11-13T07:22:27;9.20;;;3.47;;
42912;SDS011;50720;54.324;18.558;2022-11-13T07:24:57;12.55;;;5.07;;
42912;SDS011;50720;54.324;18.558;2022-11-13T07:27:27;10.45;;;4.68;;
42912;SDS011;50720;54.324;18.558;2022-11-13T07:29:56;14.68;;;6.55;;
42912;SDS011;50720;54.324;18.558;2022-11-13T07:32:31;9.93;;;5.40;;
42912;SDS011;50720;54.324;18.558;2022-11-13T07:35:01;10.00;;;5.65;;
42912;SDS011;50720;54.324;18.558;2022-11-13T07:37:31;11.65;;;6.28;;
42912;SDS011;50720;54.324;18.558;2022-11-13T07:40:01;12.57;;;5.40;;
42912;SDS011;50720;54.324;18.558;2022-11-13T07:45:01;14.98;;;5.72;;
42912;SDS011;50720;54.324;18.558;2022-11-13T07:47:33;12.20;;;5.47;;
42912;SDS011;50720;54.324;18.558;2022-11-13T07:52:37;16.02;;;7.15;;
42912;SDS011;50720;54.324;18.558;2022-11-13T07:55:07;18.38;;;7.82;;
42912;SDS011;50720;54.324;18.558;2022-11-13T07:57:37;13.10;;;6.93;;
42912;SDS011;50720;54.324;18.558;2022-11-13T08:00:07;11.18;;;6.20;;
42912;SDS011;50720;54.324;18.558;2022-11-13T08:02:39;14.25;;;7.68;;
42912;SDS011;50720;54.324;18.558;2022-11-13T08:07:38;12.13;;;6.97;;
42912;SDS011;50720;54.324;18.558;2022-11-13T08:10:10;10.30;;;6.18;;
42912;SDS011;50720;54.324;18.558;2022-11-13T08:12:40;12.82;;;6.50;;
42912;SDS011;50720;54.324;18.558;2022-11-13T08:15:09;12.20;;;6.35;;
42912;SDS011;50720;54.324;18.558;2022-11-13T08:17:41;13.70;;;6.20;;
42912;SDS011;50720;54.324;18.558;2022-11-13T08:22:40;13.20;;;5.93;;
42912;SDS011;50720;54.324;18.558;2022-11-13T08:25:09;11.35;;;5.78;;
42912;SDS011;50720;54.324;18.558;2022-11-13T08:27:40;11.27;;;5.85;;
42912;SDS011;50720;54.324;18.558;2022-11-13T08:30:09;9.50;;;4.80;;
42912;SDS011;50720;54.324;18.558;2022-11-13T08:32:42;10.18;;;4.75;;
42912;SDS011;50720;54.324;18.558;2022-11-13T08:35:12;12.55;;;5.38;;
42912;SDS011;50720;54.324;18.558;2022-11-13T08:37:46;11.27;;;5.70;;
42912;SDS011;50720;54.324;18.558;2022-11-13T08:40:15;18.25;;;6.05;;
42912;SDS011;50720;54.324;18.558;2022-11-13T08:42:45;12.53;;;5.30;;
42912;SDS011;50720;54.324;18.558;2022-11-13T08:45:16;9.77;;;5.53;;
42912;SDS011;50720;54.324;18.558;2022-11-13T08:47:47;8.82;;;5.03;;
42912;SDS011;50720;54.324;18.558;2022-11-13T08:52:46;16.70;;;8.57;;
42912;SDS011;50720;54.324;18.558;2022-11-13T08:55:21;11.82;;;6.18;;
42912;SDS011;50720;54.324;18.558;2022-11-13T08:57:51;20.02;;;8.18;;
42912;SDS011;50720;54.324;18.558;2022-11-13T09:00:21;11.57;;;5.53;;
42912;SDS011;50720;54.324;18.558;2022-11-13T09:02:54;10.23;;;5.30;;
42912;SDS011;50720;54.324;18.558;2022-11-13T09:05:24;7.05;;;4.20;;
42912;SDS011;50720;54.324;18.558;2022-11-13T09:07:57;9.70;;;3.83;;
42912;SDS011;50720;54.324;18.558;2022-11-13T09:10:27;10.13;;;4.15;;
42912;SDS011;50720;54.324;18.558;2022-11-13T09:12:58;11.82;;;4.07;;
42912;SDS011;50720;54.324;18.558;2022-11-13T09:15:29;8.18;;;3.50;;
42912;SDS011;50720;54.324;18.558;2022-11-13T09:18:01;6.57;;;2.95;;
42912;SDS011;50720;54.324;18.558;2022-11-13T09:20:31;11.00;;;4.07;;
42912;SDS011;50720;54.324;18.558;2022-11-13T09:23:02;9.85;;;3.50;;
42912;SDS011;50720;54.324;18.558;2022-11-13T09:25:33;10.32;;;3.35;;
42912;SDS011;50720;54.324;18.558;2022-11-13T09:28:05;10.18;;;2.90;;
42912;SDS011;50720;54.324;18.558;2022-11-13T09:33:08;10.57;;;3.45;;
42912;SDS011;50720;54.324;18.558;2022-11-13T09:35:41;6.47;;;3.22;;
42912;SDS011;50720;54.324;18.558;2022-11-13T09:38:12;15.02;;;5.25;;
42912;SDS011;50720;54.324;18.558;2022-11-13T09:40:45;13.70;;;4.93;;
42912;SDS011;50720;54.324;18.558;2022-11-13T09:43:26;9.52;;;3.45;;
42912;SDS011;50720;54.324;18.558;2022-11-13T09:46:02;6.50;;;2.22;;
42912;SDS011;50720;54.324;18.558;2022-11-13T09:48:42;5.13;;;2.45;;
42912;SDS011;50720;54.324;18.558;2022-11-13T09:51:17;12.32;;;4.28;;
42912;SDS011;50720;54.324;18.558;2022-11-13T09:53:50;8.95;;;2.22;;
42912;SDS011;50720;54.324;18.558;2022-11-13T09:56:23;6.43;;;2.80;;
42912;SDS011;50720;54.324;18.558;2022-11-13T09:58:58;4.95;;;2.33;;
42912;SDS011;50720;54.324;18.558;2022-11-13T10:01:45;8.00;;;2.53;;
42912;SDS011;50720;54.324;18.558;2022-11-13T10:04:23;8.30;;;2.78;;
42912;SDS011;50720;54.324;18.558;2022-11-13T10:07:04;5.50;;;2.22;;
42912;SDS011;50720;54.324;18.558;2022-11-13T10:09:47;5.32;;;2.78;;
42912;SDS011;50720;54.324;18.558;2022-11-13T10:12:27;8.65;;;3.42;;
42912;SDS011;50720;54.324;18.558;2022-11-13T10:15:01;5.18;;;2.47;;
42912;SDS011;50720;54.324;18.558;2022-11-13T10:17:34;6.85;;;2.50;;
42912;SDS011;50720;54.324;18.558;2022-11-13T10:20:10;5.50;;;2.83;;
42912;SDS011;50720;54.324;18.558;2022-11-13T10:22:43;8.43;;;3.00;;
42912;SDS011;50720;54.324;18.558;2022-11-13T10:25:18;5.72;;;2.17;;
42912;SDS011;50720;54.324;18.558;2022-11-13T10:27:52;6.25;;;2.95;;
42912;SDS011;50720;54.324;18.558;2022-11-13T10:30:24;6.30;;;2.72;;
42912;SDS011;50720;54.324;18.558;2022-11-13T10:33:00;6.07;;;2.95;;
42912;SDS011;50720;54.324;18.558;2022-11-13T10:35:40;6.32;;;2.15;;
42912;SDS011;50720;54.324;18.558;2022-11-13T10:38:16;5.53;;;2.58;;
42912;SDS011;50720;54.324;18.558;2022-11-13T10:40:50;8.27;;;2.30;;
42912;SDS011;50720;54.324;18.558;2022-11-13T10:43:21;7.97;;;2.70;;
42912;SDS011;50720;54.324;18.558;2022-11-13T10:45:54;5.50;;;2.78;;
42912;SDS011;50720;54.324;18.558;2022-11-13T10:48:25;6.60;;;2.67;;
42912;SDS011;50720;54.324;18.558;2022-11-13T10:50:59;8.02;;;3.10;;
42912;SDS011;50720;54.324;18.558;2022-11-13T10:53:36;9.50;;;3.50;;
42912;SDS011;50720;54.324;18.558;2022-11-13T10:56:12;7.13;;;3.10;;
42912;SDS011;50720;54.324;18.558;2022-11-13T10:58:58;7.22;;;4.70;;
42912;SDS011;50720;54.324;18.558;2022-11-13T11:01:29;12.65;;;4.47;;
42912;SDS011;50720;54.324;18.558;2022-11-13T11:03:59;8.52;;;4.13;;
42912;SDS011;50720;54.324;18.558;2022-11-13T11:06:33;11.30;;;3.35;;
42912;SDS011;50720;54.324;18.558;2022-11-13T11:09:24;10.18;;;4.07;;
42912;SDS011;50720;54.324;18.558;2022-11-13T11:11:57;7.85;;;3.08;;
42912;SDS011;50720;54.324;18.558;2022-11-13T11:14:58;7.07;;;2.83;;
42912;SDS011;50720;54.324;18.558;2022-11-13T11:17:37;7.68;;;3.55;;
42912;SDS011;50720;54.324;18.558;2022-11-13T11:20:15;8.07;;;3.30;;
42912;SDS011;50720;54.324;18.558;2022-11-13T11:25:28;6.53;;;2.50;;
42912;SDS011;50720;54.324;18.558;2022-11-13T11:28:04;5.85;;;2.95;;
42912;SDS011;50720;54.324;18.558;2022-11-13T11:30:39;6.35;;;2.75;;
42912;SDS011;50720;54.324;18.558;2022-11-13T11:33:18;4.80;;;3.45;;
42912;SDS011;50720;54.324;18.558;2022-11-13T11:35:51;4.50;;;2.92;;
42912;SDS011;50720;54.324;18.558;2022-11-13T11:38:28;5.88;;;4.20;;
42912;SDS011;50720;54.324;18.558;2022-11-13T11:41:06;5.70;;;3.42;;
42912;SDS011;50720;54.324;18.558;2022-11-13T11:43:43;7.50;;;3.10;;
42912;SDS011;50720;54.324;18.558;2022-11-13T11:46:17;8.05;;;2.30;;
42912;SDS011;50720;54.324;18.558;2022-11-13T11:48:58;5.00;;;2.63;;
42912;SDS011;50720;54.324;18.558;2022-11-13T11:51:29;7.50;;;2.72;;
42912;SDS011;50720;54.324;18.558;2022-11-13T11:54:05;11.25;;;3.90;;
42912;SDS011;50720;54.324;18.558;2022-11-13T11:56:44;6.47;;;2.60;;
42912;SDS011;50720;54.324;18.558;2022-11-13T11:59:27;7.88;;;2.90;;
42912;SDS011;50720;54.324;18.558;2022-11-13T12:02:19;7.07;;;4.18;;
42912;SDS011;50720;54.324;18.558;2022-11-13T12:05:09;6.43;;;3.78;;
42912;SDS011;50720;54.324;18.558;2022-11-13T12:07:47;12.75;;;3.53;;
42912;SDS011;50720;54.324;18.558;2022-11-13T12:10:39;8.95;;;3.05;;
42912;SDS011;50720;54.324;18.558;2022-11-13T12:13:19;6.90;;;3.30;;
42912;SDS011;50720;54.324;18.558;2022-11-13T12:15:58;9.52;;;3.05;;
42912;SDS011;50720;54.324;18.558;2022-11-13T12:18:35;7.88;;;2.78;;
42912;SDS011;50720;54.324;18.558;2022-11-13T12:21:20;8.65;;;3.85;;
42912;SDS011;50720;54.324;18.558;2022-11-13T12:23:57;9.25;;;3.60;;
42912;SDS011;50720;54.324;18.558;2022-11-13T12:26:40;7.25;;;3.50;;
42912;SDS011;50720;54.324;18.558;2022-11-13T12:29:18;12.50;;;3.22;;
42912;SDS011;50720;54.324;18.558;2022-11-13T12:32:08;10.18;;;3.13;;
42912;SDS011;50720;54.324;18.558;2022-11-13T12:34:50;13.95;;;3.80;;
42912;SDS011;50720;54.324;18.558;2022-11-13T12:37:25;8.18;;;3.30;;
42912;SDS011;50720;54.324;18.558;2022-11-13T12:40:02;10.23;;;4.35;;
42912;SDS011;50720;54.324;18.558;2022-11-13T12:42:38;8.02;;;3.70;;
42912;SDS011;50720;54.324;18.558;2022-11-13T12:45:12;11.82;;;4.57;;
42912;SDS011;50720;54.324;18.558;2022-11-13T12:47:47;9.73;;;3.55;;
42912;SDS011;50720;54.324;18.558;2022-11-13T12:50:20;13.93;;;4.18;;
42912;SDS011;50720;54.324;18.558;2022-11-13T12:52:59;4.70;;;3.05;;
42912;SDS011;50720;54.324;18.558;2022-11-13T12:55:30;6.57;;;3.60;;
42912;SDS011;50720;54.324;18.558;2022-11-13T12:58:08;9.98;;;3.83;;
42912;SDS011;50720;54.324;18.558;2022-11-13T13:00:38;9.20;;;4.20;;
42912;SDS011;50720;54.324;18.558;2022-11-13T13:03:29;15.20;;;4.85;;
42912;SDS011;50720;54.324;18.558;2022-11-13T13:06:14;12.88;;;5.60;;
42912;SDS011;50720;54.324;18.558;2022-11-13T13:09:05;12.70;;;4.80;;
42912;SDS011;50720;54.324;18.558;2022-11-13T13:11:48;10.25;;;4.70;;
42912;SDS011;50720;54.324;18.558;2022-11-13T13:14:31;11.45;;;5.88;;
42912;SDS011;50720;54.324;18.558;2022-11-13T13:17:21;13.82;;;6.38;;
42912;SDS011;50720;54.324;18.558;2022-11-13T13:19:58;12.23;;;5.72;;
42912;SDS011;50720;54.324;18.558;2022-11-13T13:22:30;10.40;;;5.30;;
42912;SDS011;50720;54.324;18.558;2022-11-13T13:25:03;9.25;;;4.20;;
42912;SDS011;50720;54.324;18.558;2022-11-13T13:27:40;13.80;;;5.45;;
42912;SDS011;50720;54.324;18.558;2022-11-13T13:30:15;15.27;;;6.05;;
42912;SDS011;50720;54.324;18.558;2022-11-13T13:32:49;12.63;;;5.25;;
42912;SDS011;50720;54.324;18.558;2022-11-13T13:35:30;15.02;;;5.97;;
42912;SDS011;50720;54.324;18.558;2022-11-13T13:38:12;16.88;;;5.63;;
42912;SDS011;50720;54.324;18.558;2022-11-13T13:40:51;12.57;;;5.82;;
42912;SDS011;50720;54.324;18.558;2022-11-13T13:43:35;16.30;;;6.13;;
42912;SDS011;50720;54.324;18.558;2022-11-13T13:46:16;15.70;;;5.90;;
42912;SDS011;50720;54.324;18.558;2022-11-13T13:48:48;14.00;;;8.80;;
42912;SDS011;50720;54.324;18.558;2022-11-13T13:51:22;13.25;;;6.93;;
42912;SDS011;50720;54.324;18.558;2022-11-13T13:53:54;10.43;;;5.25;;
42912;SDS011;50720;54.324;18.558;2022-11-13T13:56:27;17.58;;;6.47;;
42912;SDS011;50720;54.324;18.558;2022-11-13T13:58:56;10.00;;;6.63;;
42912;SDS011;50720;54.324;18.558;2022-11-13T14:01:30;11.85;;;6.13;;
42912;SDS011;50720;54.324;18.558;2022-11-13T14:04:02;8.43;;;5.35;;
42912;SDS011;50720;54.324;18.558;2022-11-13T14:06:33;10.50;;;5.18;;
42912;SDS011;50720;54.324;18.558;2022-11-13T14:09:06;11.25;;;5.65;;
42912;SDS011;50720;54.324;18.558;2022-11-13T14:11:37;10.32;;;4.85;;
42912;SDS011;50720;54.324;18.558;2022-11-13T14:14:07;13.15;;;4.30;;
42912;SDS011;50720;54.324;18.558;2022-11-13T14:21:49;9.32;;;4.97;;
42912;SDS011;50720;54.324;18.558;2022-11-13T14:24:20;5.18;;;3.83;;
42912;SDS011;50720;54.324;18.558;2022-11-13T14:26:54;8.82;;;4.43;;
42912;SDS011;50720;54.324;18.558;2022-11-13T14:29:30;11.25;;;4.45;;
42912;SDS011;50720;54.324;18.558;2022-11-13T14:32:05;7.35;;;4.32;;
42912;SDS011;50720;54.324;18.558;2022-11-13T14:34:41;9.20;;;4.13;;
42912;SDS011;50720;54.324;18.558;2022-11-13T14:37:19;12.85;;;5.60;;
42912;SDS011;50720;54.324;18.558;2022-11-13T14:39:51;8.68;;;5.18;;
42912;SDS011;50720;54.324;18.558;2022-11-13T14:42:25;9.73;;;4.85;;
42912;SDS011;50720;54.324;18.558;2022-11-13T14:45:12;10.23;;;3.83;;
42912;SDS011;50720;54.324;18.558;2022-11-13T14:47:55;10.85;;;3.80;;
42912;SDS011;50720;54.324;18.558;2022-11-13T14:50:27;8.75;;;4.20;;
42912;SDS011;50720;54.324;18.558;2022-11-13T14:52:58;7.70;;;4.60;;
42912;SDS011;50720;54.324;18.558;2022-11-13T14:55:30;7.93;;;4.70;;
42912;SDS011;50720;54.324;18.558;2022-11-13T14:58:01;10.60;;;6.03;;
42912;SDS011;50720;54.324;18.558;2022-11-13T15:00:32;8.23;;;4.88;;
42912;SDS011;50720;54.324;18.558;2022-11-13T15:03:05;9.90;;;4.95;;
42912;SDS011;50720;54.324;18.558;2022-11-13T15:08:04;8.73;;;4.10;;
42912;SDS011;50720;54.324;18.558;2022-11-13T15:10:35;5.63;;;4.80;;
42912;SDS011;50720;54.324;18.558;2022-11-13T15:13:08;6.93;;;4.10;;
42912;SDS011;50720;54.324;18.558;2022-11-13T15:15:39;10.07;;;5.07;;
42912;SDS011;50720;54.324;18.558;2022-11-13T15:20:44;8.02;;;5.63;;
42912;SDS011;50720;54.324;18.558;2022-11-13T15:23:14;9.10;;;5.05;;
42912;SDS011;50720;54.324;18.558;2022-11-13T15:25:44;8.38;;;4.65;;
42912;SDS011;50720;54.324;18.558;2022-11-13T15:28:14;8.70;;;4.95;;
42912;SDS011;50720;54.324;18.558;2022-11-13T15:30:43;9.45;;;4.57;;
42912;SDS011;50720;54.324;18.558;2022-11-13T15:33:14;7.72;;;5.40;;
42912;SDS011;50720;54.324;18.558;2022-11-13T15:35:44;10.07;;;5.20;;
42912;SDS011;50720;54.324;18.558;2022-11-13T15:38:14;7.82;;;5.13;;
42912;SDS011;50720;54.324;18.558;2022-11-13T15:40:44;7.80;;;4.78;;
42912;SDS011;50720;54.324;18.558;2022-11-13T15:43:14;11.65;;;4.93;;
42912;SDS011;50720;54.324;18.558;2022-11-13T15:45:48;10.40;;;4.55;;
42912;SDS011;50720;54.324;18.558;2022-11-13T15:48:18;8.55;;;4.50;;